createdAt,value
2019-01-12T00:02:28.968Z,3.10
2019-01-12T00:04:55.101Z,3.10
2019-01-12T00:08:24.301Z,3.10
2019-01-12T00:10:51.472Z,3.10
2019-01-12T00:13:17.646Z,3.10
2019-01-12T00:16:22.427Z,3.10
2019-01-12T00:19:25.205Z,3.10
2019-01-12T00:21:51.635Z,3.10
2019-01-12T00:24:20.895Z,3.10
2019-01-12T00:27:16.762Z,3.20
2019-01-12T00:29:44.522Z,3.00
2019-01-12T00:32:12.275Z,2.90
2019-01-12T00:35:42.200Z,3.00
2019-01-12T00:38:16.829Z,2.90
2019-01-12T00:40:43.160Z,3.00
2019-01-12T00:43:38.442Z,3.00
2019-01-12T00:46:11.043Z,3.00
2019-01-12T00:48:38.133Z,3.00
2019-01-12T00:51:14.305Z,3.00
2019-01-12T00:53:40.837Z,3.00
2019-01-12T00:56:07.020Z,3.00
2019-01-12T00:58:43.483Z,3.00
2019-01-12T01:01:09.840Z,3.00
2019-01-12T01:03:38.469Z,3.10
2019-01-12T01:06:33.491Z,3.10
2019-01-12T01:09:05.939Z,3.10
2019-01-12T01:11:32.106Z,3.10
2019-01-12T01:13:58.233Z,3.10
2019-01-12T01:16:24.257Z,3.10
2019-01-12T01:19:15.324Z,3.10
2019-01-12T01:21:41.473Z,3.10
2019-01-12T01:24:07.698Z,3.10
2019-01-12T01:26:40.896Z,3.10
2019-01-12T01:29:08.327Z,3.10
2019-01-12T01:31:34.474Z,3.20
2019-01-12T01:34:03.025Z,3.20
2019-01-12T01:36:29.244Z,3.20
2019-01-12T01:39:20.887Z,3.20
2019-01-12T01:41:46.962Z,3.30
2019-01-12T01:44:14.507Z,3.30
2019-01-12T01:46:53.140Z,3.30
2019-01-12T01:49:19.301Z,3.40
2019-01-12T01:51:55.714Z,3.40
2019-01-12T01:54:21.845Z,3.40
2019-01-12T01:56:50.093Z,3.40
2019-01-12T01:59:24.131Z,3.40
2019-01-12T02:01:50.405Z,3.40
2019-01-12T02:04:34.891Z,3.40
2019-01-12T02:07:03.132Z,3.40
2019-01-12T02:09:29.252Z,3.50
2019-01-12T02:12:07.398Z,3.50
2019-01-12T02:14:33.525Z,3.50
2019-01-12T02:17:15.035Z,3.50
2019-01-12T02:19:44.485Z,3.50
2019-01-12T02:22:10.694Z,3.50
2019-01-12T02:24:49.075Z,3.60
2019-01-12T02:27:17.117Z,3.50
2019-01-12T02:29:45.547Z,3.50
2019-01-12T02:32:33.613Z,3.60
2019-01-12T02:34:59.702Z,3.60
2019-01-12T02:37:25.732Z,3.60
2019-01-12T02:40:04.571Z,3.60
2019-01-12T02:42:31.779Z,3.60
2019-01-12T02:44:58.923Z,3.60
2019-01-12T02:47:26.174Z,3.60
2019-01-12T02:49:54.374Z,3.60
2019-01-12T02:52:23.445Z,3.60
2019-01-12T02:54:49.525Z,3.60
2019-01-12T02:57:27.852Z,3.60
2019-01-12T02:59:53.937Z,3.70
2019-01-12T03:02:20.068Z,3.70
2019-01-12T03:05:05.357Z,3.70
2019-01-12T03:07:31.594Z,3.70
2019-01-12T03:09:57.782Z,3.60
2019-01-12T03:12:29.137Z,3.70
2019-01-12T03:14:55.291Z,3.70
2019-01-12T03:17:39.780Z,3.70
2019-01-12T03:20:16.087Z,3.60
2019-01-12T03:22:42.260Z,3.70
2019-01-12T03:25:24.683Z,3.60
2019-01-12T03:27:51.022Z,3.60
2019-01-12T03:30:18.778Z,3.60
2019-01-12T03:33:16.819Z,3.60
2019-01-12T03:36:28.765Z,3.60
2019-01-12T03:38:54.884Z,3.60
2019-01-12T03:41:21.047Z,3.70
2019-01-12T03:43:56.344Z,3.70
2019-01-12T03:46:22.509Z,3.70
2019-01-12T03:48:48.537Z,3.60
2019-01-12T03:51:33.418Z,3.70
2019-01-12T03:54:00.875Z,3.70
2019-01-12T03:56:29.385Z,3.70
2019-01-12T03:58:57.486Z,3.70
2019-01-12T04:01:23.525Z,3.70
2019-01-12T04:03:59.431Z,3.70
2019-01-12T04:06:26.619Z,3.70
2019-01-12T04:08:52.783Z,3.70
2019-01-12T04:12:21.165Z,3.80
2019-01-12T04:14:47.267Z,3.70
2019-01-12T04:17:13.364Z,3.80
2019-01-12T04:19:45.552Z,3.70
2019-01-12T04:22:11.715Z,3.80
2019-01-12T04:24:37.796Z,3.70
2019-01-12T04:27:04.323Z,3.80
2019-01-12T04:29:30.558Z,3.80
2019-01-12T04:32:26.733Z,3.90
2019-01-12T04:34:52.806Z,3.90
2019-01-12T04:37:18.915Z,3.90
2019-01-12T04:39:52.069Z,3.90
2019-01-12T04:42:18.212Z,3.90
2019-01-12T04:45:19.200Z,3.90
2019-01-12T04:47:57.383Z,3.90
2019-01-12T04:50:23.491Z,3.90
2019-01-12T04:52:51.652Z,3.90
2019-01-12T04:55:17.731Z,3.90
2019-01-12T04:57:43.900Z,3.90
2019-01-12T05:00:38.841Z,3.90
2019-01-12T05:03:05.177Z,3.90
2019-01-12T05:05:48.626Z,3.90
2019-01-12T05:08:45.844Z,3.90
2019-01-12T05:11:12.382Z,3.90
2019-01-12T05:13:38.470Z,3.90
2019-01-12T05:16:12.617Z,3.90
2019-01-12T05:18:38.735Z,3.90
2019-01-12T05:21:04.799Z,3.90
2019-01-12T05:23:36.860Z,4.00
2019-01-12T05:26:03.366Z,4.00
2019-01-12T05:28:29.438Z,4.00
2019-01-12T05:31:08.605Z,4.00
2019-01-12T05:33:35.674Z,4.00
2019-01-12T05:36:01.722Z,4.10
2019-01-12T05:38:55.455Z,4.10
2019-01-12T05:41:21.501Z,4.10
2019-01-12T05:43:47.533Z,4.10
2019-01-12T05:46:51.512Z,4.20
2019-01-12T05:49:24.614Z,4.20
2019-01-12T05:51:52.403Z,4.20
2019-01-12T05:54:20.893Z,4.20
2019-01-12T05:57:11.584Z,4.20
2019-01-12T05:59:37.611Z,4.20
2019-01-12T06:02:03.623Z,4.30
2019-01-12T06:04:38.875Z,4.20
2019-01-12T06:07:05.685Z,4.30
2019-01-12T06:09:31.701Z,4.30
2019-01-12T06:12:42.067Z,4.30
2019-01-12T06:15:20.006Z,4.30
2019-01-12T06:18:26.641Z,4.30
2019-01-12T06:20:55.518Z,4.40
2019-01-12T06:23:24.641Z,4.40
2019-01-12T06:26:03.581Z,4.40
2019-01-12T06:28:28.145Z,4.40
2019-01-12T06:30:54.309Z,4.40
2019-01-12T06:33:20.319Z,4.40
2019-01-12T06:36:13.439Z,4.40
2019-01-12T06:38:40.531Z,4.40
2019-01-12T06:41:06.656Z,4.40
2019-01-12T06:43:39.297Z,4.30
2019-01-12T06:46:12.528Z,4.30
2019-01-12T06:48:38.609Z,4.30
2019-01-12T06:51:08.005Z,4.30
2019-01-12T06:54:06.088Z,4.30
2019-01-12T06:56:34.341Z,4.30
2019-01-12T06:59:00.880Z,4.30
2019-01-12T07:01:27.008Z,4.30
2019-01-12T07:03:56.175Z,4.30
2019-01-12T07:06:22.247Z,4.30
2019-01-12T07:08:49.502Z,4.30
2019-01-12T07:11:54.525Z,4.30
2019-01-12T07:14:27.038Z,4.30
2019-01-12T07:16:54.375Z,4.30
2019-01-12T07:19:20.406Z,4.30
2019-01-12T07:21:46.837Z,4.30
2019-01-12T07:24:23.123Z,4.30
2019-01-12T07:26:50.556Z,4.30
2019-01-12T07:29:17.789Z,4.30
2019-01-12T07:31:54.382Z,4.30
2019-01-12T07:34:37.617Z,4.30
2019-01-12T07:37:09.490Z,4.30
2019-01-12T07:39:35.617Z,4.30
2019-01-12T07:42:01.713Z,4.30
2019-01-12T07:44:57.768Z,4.30
2019-01-12T07:47:29.907Z,4.40
2019-01-12T07:49:56.001Z,4.50
2019-01-12T07:52:23.713Z,4.50
2019-01-12T07:55:05.244Z,4.60
2019-01-12T07:57:34.609Z,4.60
2019-01-12T08:00:02.307Z,4.70
2019-01-12T08:02:30.936Z,4.70
2019-01-12T08:05:22.782Z,4.70
2019-01-12T08:07:50.312Z,4.70
2019-01-12T08:10:19.283Z,4.70
2019-01-12T08:12:45.642Z,4.70
2019-01-12T08:15:12.292Z,4.70
2019-01-12T08:17:45.494Z,4.70
2019-01-12T08:20:35.483Z,4.70
2019-01-12T08:23:14.116Z,4.70
2019-01-12T08:25:40.314Z,4.70
2019-01-12T08:28:06.379Z,4.60
2019-01-12T08:30:32.481Z,4.60
2019-01-12T08:33:16.237Z,4.60
2019-01-12T08:35:50.483Z,4.70
2019-01-12T08:38:18.196Z,4.70
2019-01-12T08:40:44.331Z,4.60
2019-01-12T08:43:11.842Z,4.60
2019-01-12T08:45:53.184Z,4.60
2019-01-12T08:48:37.832Z,4.70
2019-01-12T08:51:36.904Z,4.60
2019-01-12T08:54:25.507Z,4.70
2019-01-12T08:56:51.614Z,4.60
2019-01-12T08:59:17.727Z,4.60
2019-01-12T09:01:46.436Z,4.70
2019-01-12T09:04:12.621Z,4.70
2019-01-12T09:06:40.917Z,4.70
2019-01-12T09:09:07.211Z,4.70
2019-01-12T09:11:35.653Z,4.80
2019-01-12T09:14:04.901Z,4.80
2019-01-12T09:17:08.773Z,4.90
2019-01-12T09:19:56.606Z,4.90
2019-01-12T09:23:01.792Z,5.00
2019-01-12T09:25:28.186Z,5.00
2019-01-12T09:27:54.245Z,5.10
2019-01-12T09:30:20.938Z,5.10
2019-01-12T09:32:47.763Z,5.10
2019-01-12T09:35:23.175Z,5.20
2019-01-12T09:38:46.172Z,5.30
2019-01-12T09:41:37.888Z,5.40
2019-01-12T09:44:05.970Z,5.50
2019-01-12T09:46:31.952Z,5.60
2019-01-12T09:48:57.977Z,5.60
2019-01-12T09:51:24.202Z,5.60
2019-01-12T09:53:52.071Z,5.70
2019-01-12T09:56:18.276Z,5.60
2019-01-12T09:58:47.587Z,5.70
2019-01-12T10:01:16.033Z,5.70
2019-01-12T10:04:27.771Z,5.80
2019-01-12T10:06:53.832Z,5.80
2019-01-12T10:09:19.956Z,5.90
2019-01-12T10:12:02.663Z,5.90
2019-01-12T10:14:34.751Z,5.90
2019-01-12T10:17:12.584Z,5.90
2019-01-12T10:19:49.125Z,5.90
2019-01-12T10:22:28.513Z,5.90
2019-01-12T10:25:55.962Z,5.90
2019-01-12T10:29:04.626Z,5.90
2019-01-12T10:31:58.713Z,5.90
2019-01-12T10:37:47.172Z,5.90
2019-01-12T10:40:16.327Z,5.90
2019-01-12T10:42:43.170Z,5.90
2019-01-12T10:45:20.941Z,5.90
2019-01-12T10:48:09.191Z,5.90
2019-01-12T10:50:46.361Z,5.90
2019-01-12T10:53:19.489Z,5.90
2019-01-12T10:56:19.515Z,5.90
2019-01-12T10:58:46.588Z,5.90
2019-01-12T11:01:18.640Z,5.80
2019-01-12T11:03:45.471Z,5.80
2019-01-12T11:06:11.558Z,5.80
2019-01-12T11:08:37.694Z,5.90
2019-01-12T11:11:31.609Z,5.80
2019-01-12T11:14:16.908Z,5.80
2019-01-12T11:17:14.167Z,5.70
2019-01-12T11:19:40.324Z,5.80
2019-01-12T11:22:06.452Z,5.80
2019-01-12T11:24:32.646Z,5.80
2019-01-12T11:26:58.681Z,5.80
2019-01-12T11:29:24.824Z,5.80
2019-01-12T11:31:50.968Z,5.80
2019-01-12T11:34:26.431Z,5.80
2019-01-12T11:37:33.933Z,5.80
2019-01-12T11:40:00.017Z,5.90
2019-01-12T11:42:32.177Z,5.90
2019-01-12T11:44:58.209Z,5.90
2019-01-12T11:47:24.416Z,5.90
2019-01-12T11:49:52.438Z,5.90
2019-01-12T11:52:51.744Z,5.90
2019-01-12T11:55:23.231Z,5.80
2019-01-12T11:58:18.272Z,5.80
2019-01-12T12:00:45.512Z,5.70
2019-01-12T12:03:12.634Z,5.70
2019-01-12T12:06:23.509Z,5.70
2019-01-12T12:09:12.832Z,5.70
2019-01-12T12:12:12.374Z,5.70
2019-01-12T12:14:38.716Z,5.70
2019-01-12T12:17:20.206Z,5.70
2019-01-12T12:19:52.031Z,5.70
2019-01-12T12:22:20.101Z,5.70
2019-01-12T12:24:46.363Z,5.70
2019-01-12T12:27:12.493Z,5.70
2019-01-12T12:29:38.549Z,5.70
2019-01-12T12:32:12.913Z,5.70
2019-01-12T12:34:44.836Z,5.70
2019-01-12T12:37:38.794Z,5.80
2019-01-12T12:40:14.476Z,5.80
2019-01-12T12:43:21.982Z,5.80
2019-01-12T12:45:59.025Z,5.80
2019-01-12T12:48:39.202Z,5.80
2019-01-12T12:51:09.428Z,5.80
2019-01-12T12:54:07.571Z,5.80
2019-01-12T12:56:33.690Z,5.80
2019-01-12T12:59:01.126Z,5.80
2019-01-12T13:02:27.057Z,5.80
2019-01-12T13:04:53.150Z,5.80
2019-01-12T13:07:20.937Z,5.80
2019-01-12T13:13:13.450Z,5.80
2019-01-12T13:15:39.615Z,5.80
2019-01-12T13:18:27.690Z,5.70
2019-01-12T13:21:08.155Z,5.80
2019-01-12T13:23:56.675Z,5.80
2019-01-12T13:26:36.483Z,5.80
2019-01-12T13:29:06.701Z,5.70
2019-01-12T13:31:41.780Z,5.70
2019-01-12T13:34:20.959Z,5.70
2019-01-12T13:40:21.879Z,5.70
2019-01-12T13:42:48.146Z,5.80
2019-01-12T13:45:27.568Z,5.90
2019-01-12T13:48:24.872Z,5.90
2019-01-12T13:50:51.091Z,5.90
2019-01-12T13:53:25.418Z,5.90
2019-01-12T13:56:08.096Z,5.90
2019-01-12T13:59:01.350Z,5.80
2019-01-12T14:01:50.197Z,5.80
2019-01-12T14:04:22.161Z,5.80
2019-01-12T14:07:01.461Z,5.80
2019-01-12T14:09:59.457Z,5.80
2019-01-12T14:12:25.603Z,5.80
2019-01-12T14:15:24.112Z,5.80
2019-01-12T14:18:30.240Z,5.70
2019-01-12T14:20:56.249Z,5.70
2019-01-12T14:24:01.299Z,5.60
2019-01-12T14:26:27.398Z,5.60
2019-01-12T14:28:53.439Z,5.60
2019-01-12T14:32:12.297Z,5.60
2019-01-12T14:34:40.376Z,5.60
2019-01-12T14:37:06.520Z,5.60
2019-01-12T14:39:32.605Z,5.60
2019-01-12T14:41:58.849Z,5.60
2019-01-12T14:45:24.387Z,5.50
2019-01-12T14:47:50.628Z,5.50
2019-01-12T14:50:16.761Z,5.50
2019-01-12T14:52:42.983Z,5.50
2019-01-12T14:55:12.374Z,5.50
2019-01-12T14:57:47.758Z,5.50
2019-01-12T15:01:10.545Z,5.50
2019-01-12T15:03:36.741Z,5.50
2019-01-12T15:06:30.048Z,5.50
2019-01-12T15:09:24.005Z,5.50
2019-01-12T15:11:50.233Z,5.50
2019-01-12T15:14:24.490Z,5.50
2019-01-12T15:17:08.050Z,5.50
2019-01-12T15:19:34.142Z,5.50
2019-01-12T15:22:00.461Z,5.50
2019-01-12T15:24:30.100Z,5.40
2019-01-12T15:26:59.508Z,5.40
2019-01-12T15:29:34.721Z,5.50
2019-01-12T15:32:13.160Z,5.50
2019-01-12T15:34:47.050Z,5.50
2019-01-12T15:37:13.300Z,5.50
2019-01-12T15:39:39.666Z,5.50
2019-01-12T15:42:05.794Z,5.40
2019-01-12T15:44:31.928Z,5.40
2019-01-12T15:46:58.001Z,5.40
2019-01-12T15:49:24.388Z,5.40
2019-01-12T15:51:50.452Z,5.40
2019-01-12T15:54:16.695Z,5.40
2019-01-12T15:56:42.927Z,5.40
2019-01-12T15:59:09.049Z,5.40
2019-01-12T16:01:35.121Z,5.40
2019-01-12T16:04:01.248Z,5.50
2019-01-12T16:06:59.384Z,5.40
2019-01-12T16:09:25.592Z,5.50
2019-01-12T16:12:03.971Z,5.40
2019-01-12T16:15:01.104Z,5.50
2019-01-12T16:18:03.394Z,5.50
2019-01-12T16:20:33.138Z,5.50
2019-01-12T16:22:59.366Z,5.50
2019-01-12T16:25:26.747Z,5.50
2019-01-12T16:27:53.329Z,5.50
2019-01-12T16:30:19.587Z,5.50
2019-01-12T16:32:45.898Z,5.40
2019-01-12T16:35:12.663Z,5.40
2019-01-12T16:38:19.717Z,5.40
2019-01-12T16:40:45.950Z,5.40
2019-01-12T16:43:12.446Z,5.40
2019-01-12T16:45:38.575Z,5.40
2019-01-12T16:48:04.816Z,5.40
2019-01-12T16:50:30.842Z,5.40
2019-01-12T16:52:57.977Z,5.40
2019-01-12T16:55:24.133Z,5.40
2019-01-12T16:57:50.289Z,5.30
2019-01-12T17:00:19.496Z,5.30
2019-01-12T17:02:45.516Z,5.40
2019-01-12T17:05:11.822Z,5.30
2019-01-12T17:07:38.052Z,5.30
2019-01-12T17:10:07.994Z,5.30
2019-01-12T17:12:34.176Z,5.40
2019-01-12T17:15:00.415Z,5.20
2019-01-12T17:17:34.353Z,5.20
2019-01-12T17:20:00.847Z,5.20
2019-01-12T17:22:28.088Z,5.20
2019-01-12T17:25:06.946Z,5.20
2019-01-12T17:27:57.963Z,5.10
2019-01-12T17:30:26.112Z,5.20
2019-01-12T17:36:24.212Z,5.20
2019-01-12T17:38:50.414Z,5.20
2019-01-12T17:41:16.474Z,5.30
2019-01-12T17:43:42.675Z,5.20
2019-01-12T17:46:08.675Z,5.20
2019-01-12T17:48:34.813Z,5.30
2019-01-12T17:51:00.825Z,5.20
2019-01-12T17:53:26.986Z,5.20
2019-01-12T17:55:53.020Z,5.20
2019-01-12T17:58:29.153Z,5.20
2019-01-12T18:01:29.482Z,5.20
2019-01-12T18:03:55.675Z,5.20
2019-01-12T18:06:21.786Z,5.20
2019-01-12T18:08:47.935Z,5.20
2019-01-12T18:11:17.176Z,5.20
2019-01-12T18:13:43.407Z,5.20
2019-01-12T18:16:16.207Z,5.20
2019-01-12T18:18:52.640Z,5.20
2019-01-12T18:21:21.709Z,5.20
2019-01-12T18:24:00.799Z,5.10
2019-01-12T18:26:37.055Z,5.10
2019-01-12T18:29:25.089Z,5.10
2019-01-12T18:32:02.672Z,5.10
2019-01-12T18:34:39.776Z,5.10
2019-01-12T18:37:47.689Z,5.10
2019-01-12T18:40:19.620Z,5.10
2019-01-12T18:42:52.147Z,5.10
2019-01-12T18:45:20.734Z,5.10
2019-01-12T18:47:46.934Z,5.10
2019-01-12T18:50:15.828Z,5.20
2019-01-12T18:52:41.957Z,5.20
2019-01-12T18:55:10.240Z,5.20
2019-01-12T18:57:37.275Z,5.20
2019-01-12T19:03:35.348Z,5.20
2019-01-12T19:06:28.980Z,5.20
2019-01-12T19:12:26.859Z,5.20
2019-01-12T19:14:53.164Z,5.20
2019-01-12T19:17:21.256Z,5.20
2019-01-12T19:19:51.574Z,5.30
2019-01-12T19:22:52.943Z,5.30
2019-01-12T19:25:26.351Z,5.30
2019-01-12T19:27:55.566Z,5.30
2019-01-12T19:30:40.023Z,5.30
2019-01-12T19:33:19.536Z,5.30
2019-01-12T19:35:45.642Z,5.30
2019-01-12T19:38:11.788Z,5.30
2019-01-12T19:40:38.095Z,5.30
2019-01-12T19:43:04.214Z,5.40
2019-01-12T19:45:49.817Z,5.40
2019-01-12T19:48:56.410Z,5.40
2019-01-12T19:52:26.951Z,5.30
2019-01-12T19:54:54.726Z,5.40
2019-01-12T19:57:40.685Z,5.30
2019-01-12T20:00:41.273Z,5.30
2019-01-12T20:03:29.494Z,5.30
2019-01-12T20:06:31.497Z,5.40
2019-01-12T20:09:00.154Z,5.30
2019-01-12T20:11:26.932Z,5.40
2019-01-12T20:13:53.182Z,5.40
2019-01-12T20:16:40.399Z,5.40
2019-01-12T20:19:07.944Z,5.30
2019-01-12T20:21:44.524Z,5.40
2019-01-12T20:24:23.945Z,5.40
2019-01-12T20:26:50.188Z,5.40
2019-01-12T20:29:21.050Z,5.40
2019-01-12T20:32:02.934Z,5.40
2019-01-12T20:34:44.513Z,5.40
2019-01-12T20:41:01.587Z,5.40
2019-01-12T20:44:07.010Z,5.40
2019-01-12T20:47:07.511Z,5.40
2019-01-12T20:50:44.605Z,5.40
2019-01-12T20:53:36.043Z,5.40
2019-01-12T20:56:58.350Z,5.50
2019-01-12T21:00:10.971Z,5.50
2019-01-12T21:02:49.694Z,5.50
2019-01-12T21:05:20.166Z,5.50
2019-01-12T21:08:02.216Z,5.50
2019-01-12T21:11:22.115Z,5.50
2019-01-12T21:14:08.051Z,5.60
2019-01-12T21:17:00.443Z,5.60
2019-01-12T21:19:27.146Z,5.60
2019-01-12T21:21:55.367Z,5.60
2019-01-12T21:24:22.943Z,5.60
2019-01-12T21:26:49.088Z,5.60
2019-01-12T21:29:17.226Z,5.70
2019-01-12T21:31:51.501Z,5.70
2019-01-12T21:34:50.855Z,5.70
2019-01-12T21:37:17.625Z,5.70
2019-01-12T21:39:44.934Z,5.60
2019-01-12T21:45:43.360Z,5.70
2019-01-12T21:48:22.306Z,5.70
2019-01-12T21:50:48.635Z,5.70
2019-01-12T21:53:14.887Z,5.80
2019-01-12T21:56:07.470Z,5.70
2019-01-12T21:58:33.669Z,5.80
2019-01-12T22:01:00.090Z,5.70
2019-01-12T22:03:26.164Z,5.80
2019-01-12T22:06:17.076Z,5.70
2019-01-12T22:08:43.565Z,5.80
2019-01-12T22:11:10.788Z,5.80
2019-01-12T22:13:41.414Z,5.70
2019-01-12T22:16:07.823Z,5.80
2019-01-12T22:18:35.931Z,5.80
2019-01-12T22:21:27.981Z,5.80
2019-01-12T22:24:10.874Z,5.80
2019-01-12T22:26:37.564Z,5.80
2019-01-12T22:29:06.631Z,5.80
2019-01-12T22:31:33.048Z,5.90
2019-01-12T22:34:04.068Z,5.90
2019-01-12T22:36:34.156Z,6.00
2019-01-12T22:39:00.177Z,6.00
2019-01-12T22:41:26.212Z,5.90
2019-01-12T22:43:52.791Z,6.00
2019-01-12T22:46:18.808Z,6.00
2019-01-12T22:48:44.988Z,6.00
2019-01-12T22:51:11.268Z,6.00
2019-01-12T22:53:39.513Z,6.00
2019-01-12T22:56:11.701Z,6.00
2019-01-12T22:59:25.728Z,6.10
2019-01-12T23:01:53.697Z,6.10
2019-01-12T23:04:19.777Z,6.10
2019-01-12T23:06:46.146Z,6.20
2019-01-12T23:09:22.762Z,6.20
2019-01-12T23:11:46.736Z,6.20
2019-01-12T23:14:13.217Z,6.30
2019-01-12T23:16:45.603Z,6.30
2019-01-12T23:19:11.788Z,6.30
2019-01-12T23:21:37.860Z,6.30
2019-01-12T23:24:34.639Z,6.30
2019-01-12T23:27:01.732Z,6.30
2019-01-12T23:29:27.899Z,6.30
2019-01-12T23:31:53.933Z,6.40
2019-01-12T23:34:20.013Z,6.30
2019-01-12T23:36:46.030Z,6.40
2019-01-12T23:39:12.189Z,6.40
2019-01-12T23:41:44.242Z,6.30
2019-01-12T23:44:14.817Z,6.40
2019-01-12T23:46:39.372Z,6.40
2019-01-12T23:49:16.427Z,6.50
2019-01-12T23:51:42.564Z,6.40
2019-01-12T23:54:08.984Z,6.40
2019-01-12T23:57:22.035Z,6.40
